createdAt,value
2019-01-11T00:01:26.975Z,101728.37
2019-01-11T00:03:21.287Z,101724.08
2019-01-11T00:05:14.236Z,101727.34
2019-01-11T00:07:08.115Z,101734.86
2019-01-11T00:09:01.461Z,101724.97
2019-01-11T00:10:56.197Z,101727.52
2019-01-11T00:12:49.260Z,101729.59
2019-01-11T00:14:42.666Z,101728.86
2019-01-11T00:16:36.406Z,101718.08
2019-01-11T00:18:29.846Z,101720.39
2019-01-11T00:20:22.561Z,101726.59
2019-01-11T00:22:16.496Z,101717.50
2019-01-11T00:24:10.172Z,101722.48
2019-01-11T00:26:03.328Z,101721.80
2019-01-11T00:27:56.192Z,101710.58
2019-01-11T00:29:50.026Z,101709.14
2019-01-11T00:31:44.587Z,101709.44
2019-01-11T00:33:37.399Z,101711.48
2019-01-11T00:35:30.441Z,101708.73
2019-01-11T00:37:23.557Z,101712.26
2019-01-11T00:39:16.826Z,101704.64
2019-01-11T00:41:09.934Z,101710.58
2019-01-11T00:43:03.372Z,101719.80
2019-01-11T00:44:56.333Z,101707.80
2019-01-11T00:46:51.366Z,101702.14
2019-01-11T00:48:45.967Z,101705.97
2019-01-11T00:50:39.521Z,101705.97
2019-01-11T00:52:32.640Z,101709.95
2019-01-11T00:54:25.875Z,101705.38
2019-01-11T00:56:18.774Z,101706.15
2019-01-11T00:58:11.794Z,101708.45
2019-01-11T01:00:05.066Z,101711.20
2019-01-11T01:01:58.000Z,101710.70
2019-01-11T01:03:50.976Z,101712.46
2019-01-11T01:05:44.337Z,101707.62
2019-01-11T01:07:37.955Z,101707.90
2019-01-11T01:09:30.738Z,101709.06
2019-01-11T01:11:23.560Z,101701.34
2019-01-11T01:13:16.518Z,101700.19
2019-01-11T01:15:11.796Z,101712.66
2019-01-11T01:17:05.088Z,101705.45
2019-01-11T01:18:58.160Z,101697.55
2019-01-11T01:20:51.042Z,101699.41
2019-01-11T01:22:44.036Z,101698.13
2019-01-11T01:24:37.914Z,101691.86
2019-01-11T01:26:30.962Z,101701.75
2019-01-11T01:28:24.731Z,101700.95
2019-01-11T01:30:19.739Z,101694.16
2019-01-11T01:32:13.698Z,101684.75
2019-01-11T01:34:07.186Z,101687.27
2019-01-11T01:36:00.144Z,101688.68
2019-01-11T01:37:53.284Z,101695.88
2019-01-11T01:39:46.310Z,101696.90
2019-01-11T01:41:39.130Z,101695.09
2019-01-11T01:43:33.256Z,101697.65
2019-01-11T01:45:26.790Z,101689.61
2019-01-11T01:47:19.860Z,101688.33
2019-01-11T01:49:12.778Z,101687.00
2019-01-11T01:51:05.879Z,101685.10
2019-01-11T01:52:58.838Z,101686.86
2019-01-11T01:54:51.873Z,101687.61
2019-01-11T01:56:44.782Z,101680.25
2019-01-11T01:58:37.879Z,101680.59
2019-01-11T02:00:31.441Z,101681.92
2019-01-11T02:02:24.523Z,101685.31
2019-01-11T02:04:17.546Z,101674.72
2019-01-11T02:06:10.642Z,101668.98
2019-01-11T02:08:03.724Z,101671.89
2019-01-11T02:09:58.406Z,101669.25
2019-01-11T02:11:51.460Z,101669.99
2019-01-11T02:13:44.501Z,101669.20
2019-01-11T02:15:37.918Z,101665.80
2019-01-11T02:17:30.895Z,101656.70
2019-01-11T02:19:23.565Z,101659.88
2019-01-11T02:21:16.639Z,101654.71
2019-01-11T02:23:09.701Z,101655.86
2019-01-11T02:25:02.737Z,101655.16
2019-01-11T02:26:57.008Z,101655.50
2019-01-11T02:28:50.146Z,101656.52
2019-01-11T02:30:43.000Z,101650.64
2019-01-11T02:32:35.917Z,101643.36
2019-01-11T02:34:29.139Z,101637.03
2019-01-11T02:36:21.977Z,101637.16
2019-01-11T02:38:14.822Z,101628.67
2019-01-11T02:40:08.241Z,101630.97
2019-01-11T02:42:01.380Z,101628.18
2019-01-11T02:43:54.198Z,101623.98
2019-01-11T02:45:47.279Z,101628.12
2019-01-11T02:47:40.298Z,101626.08
2019-01-11T02:49:39.747Z,101618.11
2019-01-11T02:51:27.947Z,101623.84
2019-01-11T02:53:21.127Z,101617.56
2019-01-11T02:55:14.077Z,101614.16
2019-01-11T02:57:07.366Z,101611.16
2019-01-11T02:59:00.033Z,101610.44
2019-01-11T03:00:53.199Z,101611.45
2019-01-11T03:02:46.226Z,101604.64
2019-01-11T03:04:39.101Z,101604.36
2019-01-11T03:06:31.846Z,101598.83
2019-01-11T03:08:25.344Z,101591.18
2019-01-11T03:10:23.242Z,101577.95
2019-01-11T03:12:16.967Z,101580.75
2019-01-11T03:14:10.561Z,101584.48
2019-01-11T03:16:03.543Z,101579.80
2019-01-11T03:17:56.708Z,101583.20
2019-01-11T03:19:49.705Z,101585.41
2019-01-11T03:21:42.722Z,101574.87
2019-01-11T03:23:35.481Z,101571.14
2019-01-11T03:25:28.935Z,101563.97
2019-01-11T03:27:21.922Z,101565.33
2019-01-11T03:29:14.716Z,101563.97
2019-01-11T03:31:34.777Z,101555.95
2019-01-11T03:33:27.894Z,101557.28
2019-01-11T03:35:21.978Z,101554.79
2019-01-11T03:37:14.935Z,101545.98
2019-01-11T03:39:10.803Z,101540.12
2019-01-11T03:41:04.164Z,101541.84
2019-01-11T03:42:57.696Z,101538.11
2019-01-11T03:44:50.906Z,101537.91
2019-01-11T03:46:43.715Z,101537.02
2019-01-11T03:48:36.566Z,101539.07
2019-01-11T03:50:34.474Z,101536.62
2019-01-11T03:52:27.394Z,101534.65
2019-01-11T03:54:20.660Z,101531.36
2019-01-11T03:56:13.783Z,101531.55
2019-01-11T03:58:06.751Z,101535.40
2019-01-11T03:59:59.648Z,101538.08
2019-01-11T04:01:52.931Z,101532.06
2019-01-11T04:03:46.268Z,101526.24
2019-01-11T04:05:39.363Z,101529.73
2019-01-11T04:07:32.214Z,101525.55
2019-01-11T04:09:25.228Z,101523.09
2019-01-11T04:11:18.135Z,101519.28
2019-01-11T04:13:11.226Z,101517.27
2019-01-11T04:15:05.746Z,101517.82
2019-01-11T04:16:59.446Z,101517.12
2019-01-11T04:19:15.686Z,101518.77
2019-01-11T04:21:08.679Z,101514.92
2019-01-11T04:23:01.808Z,101512.06
2019-01-11T04:25:12.200Z,101508.36
2019-01-11T04:27:05.577Z,101502.05
2019-01-11T04:28:58.427Z,101499.92
2019-01-11T04:30:51.560Z,101498.49
2019-01-11T04:32:44.398Z,101500.77
2019-01-11T04:34:37.249Z,101500.03
2019-01-11T04:36:30.377Z,101504.02
2019-01-11T04:38:23.874Z,101504.33
2019-01-11T04:40:19.155Z,101503.98
2019-01-11T04:42:11.977Z,101499.77
2019-01-11T04:44:05.035Z,101493.94
2019-01-11T04:45:58.145Z,101495.66
2019-01-11T04:47:50.924Z,101490.59
2019-01-11T04:49:44.807Z,101484.17
2019-01-11T04:51:37.568Z,101481.20
2019-01-11T04:53:30.913Z,101477.75
2019-01-11T04:55:23.963Z,101479.41
2019-01-11T04:57:16.872Z,101477.25
2019-01-11T04:59:09.783Z,101473.80
2019-01-11T05:01:02.854Z,101472.52
2019-01-11T05:02:56.716Z,101476.37
2019-01-11T05:04:49.876Z,101470.75
2019-01-11T05:06:42.861Z,101472.44
2019-01-11T05:08:35.764Z,101468.19
2019-01-11T05:10:28.648Z,101471.23
2019-01-11T05:12:21.808Z,101468.29
2019-01-11T05:14:16.061Z,101465.32
2019-01-11T05:16:09.116Z,101466.20
2019-01-11T05:18:02.134Z,101456.41
2019-01-11T05:20:04.058Z,101460.69
2019-01-11T05:21:57.209Z,101459.48
2019-01-11T05:23:50.122Z,101461.64
2019-01-11T05:25:43.999Z,101459.11
2019-01-11T05:27:38.578Z,101454.81
2019-01-11T05:29:32.695Z,101451.00
2019-01-11T05:31:25.565Z,101452.25
2019-01-11T05:33:18.459Z,101461.23
2019-01-11T05:35:11.564Z,101456.84
2019-01-11T05:37:05.102Z,101454.23
2019-01-11T05:38:58.064Z,101453.84
2019-01-11T05:40:51.434Z,101448.05
2019-01-11T05:42:44.336Z,101458.62
2019-01-11T05:44:37.164Z,101460.23
2019-01-11T05:46:30.404Z,101460.53
2019-01-11T05:48:23.536Z,101463.80
2019-01-11T05:50:23.935Z,101464.20
2019-01-11T05:52:14.086Z,101459.07
2019-01-11T05:54:07.053Z,101460.94
2019-01-11T05:56:02.685Z,101460.64
2019-01-11T05:58:13.453Z,101458.22
2019-01-11T06:00:06.629Z,101460.95
2019-01-11T06:01:59.795Z,101461.98
2019-01-11T06:03:54.395Z,101455.22
2019-01-11T06:05:47.270Z,101459.98
2019-01-11T06:07:44.737Z,101458.77
2019-01-11T06:09:37.614Z,101463.84
2019-01-11T06:11:30.687Z,101454.81
2019-01-11T06:13:25.615Z,101453.87
2019-01-11T06:15:18.477Z,101452.59
2019-01-11T06:17:11.585Z,101455.22
2019-01-11T06:19:04.723Z,101445.76
2019-01-11T06:20:57.712Z,101446.23
2019-01-11T06:22:50.903Z,101441.98
2019-01-11T06:24:44.024Z,101441.91
2019-01-11T06:26:36.809Z,101440.22
2019-01-11T06:28:29.660Z,101435.02
2019-01-11T06:30:22.449Z,101432.92
2019-01-11T06:32:15.329Z,101429.54
2019-01-11T06:34:08.203Z,101426.67
2019-01-11T06:36:02.036Z,101422.85
2019-01-11T06:37:54.971Z,101427.22
2019-01-11T06:39:49.460Z,101432.52
2019-01-11T06:41:47.936Z,101422.41
2019-01-11T06:43:41.362Z,101411.36
2019-01-11T06:45:36.147Z,101419.58
2019-01-11T06:47:29.347Z,101411.09
2019-01-11T06:49:22.949Z,101407.47
2019-01-11T06:51:15.890Z,101407.09
2019-01-11T06:53:09.379Z,101406.72
2019-01-11T06:55:05.390Z,101405.44
2019-01-11T06:56:57.970Z,101400.36
2019-01-11T06:58:51.227Z,101394.06
2019-01-11T07:00:43.820Z,101392.78
2019-01-11T07:02:36.957Z,101390.18
2019-01-11T07:04:30.096Z,101389.67
2019-01-11T07:06:23.359Z,101387.92
2019-01-11T07:08:16.499Z,101384.88
2019-01-11T07:10:15.000Z,101384.44
2019-01-11T07:12:07.992Z,101380.11
2019-01-11T07:14:01.262Z,101384.06
2019-01-11T07:15:54.387Z,101374.66
2019-01-11T07:17:47.514Z,101377.23
2019-01-11T07:19:40.310Z,101379.93
2019-01-11T07:21:33.418Z,101376.20
2019-01-11T07:23:26.405Z,101375.83
2019-01-11T07:25:19.985Z,101373.77
2019-01-11T07:27:12.895Z,101370.38
2019-01-11T07:29:05.947Z,101369.56
2019-01-11T07:31:05.682Z,101373.55
2019-01-11T07:32:58.925Z,101356.84
2019-01-11T07:34:51.858Z,101363.92
2019-01-11T07:36:52.015Z,101359.25
2019-01-11T07:38:45.039Z,101364.09
2019-01-11T07:40:38.057Z,101358.30
2019-01-11T07:42:31.223Z,101357.17
2019-01-11T07:44:25.630Z,101356.04
2019-01-11T07:46:18.794Z,101346.55
2019-01-11T07:48:11.735Z,101344.92
2019-01-11T07:50:04.602Z,101341.95
2019-01-11T07:51:58.016Z,101335.78
2019-01-11T07:53:51.173Z,101336.86
2019-01-11T07:55:43.967Z,101336.93
2019-01-11T07:57:37.333Z,101333.87
2019-01-11T07:59:30.296Z,101328.80
2019-01-11T08:01:23.592Z,101324.95
2019-01-11T08:03:16.778Z,101322.78
2019-01-11T08:05:09.773Z,101322.92
2019-01-11T08:07:04.228Z,101327.69
2019-01-11T08:08:57.574Z,101316.49
2019-01-11T08:10:50.776Z,101312.63
2019-01-11T08:12:43.759Z,101303.70
2019-01-11T08:14:36.780Z,101308.85
2019-01-11T08:16:29.775Z,101314.87
2019-01-11T08:18:22.938Z,101309.32
2019-01-11T08:20:15.968Z,101305.00
2019-01-11T08:22:12.168Z,101304.58
2019-01-11T08:24:05.212Z,101301.55
2019-01-11T08:25:58.332Z,101307.09
2019-01-11T08:27:51.453Z,101297.30
2019-01-11T08:29:44.613Z,101307.84
2019-01-11T08:31:37.583Z,101295.42
2019-01-11T08:33:34.383Z,101290.68
2019-01-11T08:35:27.391Z,101288.66
2019-01-11T08:37:21.897Z,101288.81
2019-01-11T08:39:16.947Z,101292.02
2019-01-11T08:41:09.959Z,101281.36
2019-01-11T08:43:03.712Z,101278.53
2019-01-11T08:44:56.972Z,101278.45
2019-01-11T08:46:49.959Z,101276.09
2019-01-11T08:48:42.868Z,101273.57
2019-01-11T08:50:36.235Z,101278.07
2019-01-11T08:52:29.629Z,101281.55
2019-01-11T08:54:22.548Z,101280.13
2019-01-11T08:56:15.796Z,101281.15
2019-01-11T08:58:08.940Z,101274.52
2019-01-11T09:00:02.820Z,101272.02
2019-01-11T09:01:55.852Z,101270.45
2019-01-11T09:03:48.790Z,101271.61
2019-01-11T09:05:42.149Z,101267.81
2019-01-11T09:07:35.462Z,101268.06
2019-01-11T09:09:28.349Z,101259.96
2019-01-11T09:11:21.489Z,101259.12
2019-01-11T09:13:14.390Z,101256.06
2019-01-11T09:15:10.121Z,101254.43
2019-01-11T09:17:03.256Z,101250.67
2019-01-11T09:18:58.627Z,101250.42
2019-01-11T09:20:51.672Z,101241.19
2019-01-11T09:22:45.365Z,101231.23
2019-01-11T09:24:38.019Z,101237.41
2019-01-11T09:26:32.153Z,101235.12
2019-01-11T09:28:25.332Z,101231.03
2019-01-11T09:30:18.805Z,101227.63
2019-01-11T09:32:11.726Z,101224.59
2019-01-11T09:34:04.590Z,101225.30
2019-01-11T09:35:57.807Z,101214.91
2019-01-11T09:37:50.532Z,101213.56
2019-01-11T09:39:44.006Z,101203.37
2019-01-11T09:41:37.355Z,101205.89
2019-01-11T09:43:30.780Z,101205.83
2019-01-11T09:45:24.126Z,101201.96
2019-01-11T09:47:16.992Z,101203.30
2019-01-11T09:49:10.026Z,101189.58
2019-01-11T09:51:03.378Z,101184.54
2019-01-11T09:52:57.079Z,101179.13
2019-01-11T09:54:50.380Z,101175.36
2019-01-11T09:56:43.625Z,101166.90
2019-01-11T09:58:36.706Z,101164.56
2019-01-11T10:00:29.524Z,101159.75
2019-01-11T10:02:43.180Z,101150.73
2019-01-11T10:04:38.688Z,101151.97
2019-01-11T10:06:33.469Z,101147.69
2019-01-11T10:08:26.876Z,101150.73
2019-01-11T10:10:19.704Z,101135.66
2019-01-11T10:12:12.706Z,101129.63
2019-01-11T10:14:05.871Z,101119.83
2019-01-11T10:15:58.726Z,101118.59
2019-01-11T10:17:52.443Z,101116.84
2019-01-11T10:19:45.194Z,101116.14
2019-01-11T10:21:38.986Z,101106.79
2019-01-11T10:23:31.812Z,101099.15
2019-01-11T10:25:24.921Z,101100.91
2019-01-11T10:27:17.928Z,101095.38
2019-01-11T10:29:10.904Z,101089.86
2019-01-11T10:31:03.823Z,101090.00
2019-01-11T10:32:56.852Z,101089.73
2019-01-11T10:34:49.876Z,101082.97
2019-01-11T10:36:42.848Z,101076.69
2019-01-11T10:38:36.135Z,101083.70
2019-01-11T10:40:28.771Z,101076.07
2019-01-11T10:42:22.149Z,101070.62
2019-01-11T10:44:15.029Z,101066.83
2019-01-11T10:46:20.125Z,101060.91
2019-01-11T10:48:12.908Z,101047.72
2019-01-11T10:50:07.539Z,101035.82
2019-01-11T10:52:00.237Z,101024.23
2019-01-11T10:53:53.047Z,101014.44
2019-01-11T10:55:45.910Z,101003.84
2019-01-11T10:57:38.762Z,100999.96
2019-01-11T10:59:32.028Z,100996.02
2019-01-11T11:01:25.097Z,100988.02
2019-01-11T11:03:19.153Z,100993.81
2019-01-11T11:05:12.062Z,100984.28
2019-01-11T11:07:05.663Z,100974.81
2019-01-11T11:08:58.952Z,100973.15
2019-01-11T11:10:52.150Z,100965.02
2019-01-11T11:12:45.112Z,100963.20
2019-01-11T11:14:37.820Z,100959.78
2019-01-11T11:16:33.005Z,100956.70
2019-01-11T11:18:26.483Z,100953.80
2019-01-11T11:20:21.262Z,100947.70
2019-01-11T11:22:14.470Z,100935.27
2019-01-11T11:24:07.459Z,100936.08
2019-01-11T11:26:00.272Z,100940.06
2019-01-11T11:27:53.196Z,100931.85
2019-01-11T11:29:46.433Z,100929.23
2019-01-11T11:31:39.375Z,100921.43
2019-01-11T11:33:33.147Z,100925.67
2019-01-11T11:35:26.954Z,100918.77
2019-01-11T11:37:20.015Z,100916.67
2019-01-11T11:39:13.870Z,100909.25
2019-01-11T11:41:06.825Z,100906.54
2019-01-11T11:43:00.336Z,100906.09
2019-01-11T11:44:53.331Z,100901.42
2019-01-11T11:46:46.213Z,100899.23
2019-01-11T11:48:39.460Z,100892.77
2019-01-11T11:50:32.617Z,100893.66
2019-01-11T11:52:25.678Z,100891.97
2019-01-11T11:54:18.868Z,100888.47
2019-01-11T11:56:12.283Z,100887.44
2019-01-11T11:58:05.585Z,100875.39
2019-01-11T11:59:59.912Z,100877.60
2019-01-11T12:01:54.798Z,100869.81
2019-01-11T12:03:47.826Z,100859.10
2019-01-11T12:05:41.552Z,100869.92
2019-01-11T12:07:34.522Z,100866.02
2019-01-11T12:09:27.536Z,100853.06
2019-01-11T12:11:20.435Z,100851.70
2019-01-11T12:13:13.926Z,100853.86
2019-01-11T12:15:07.546Z,100850.38
2019-01-11T12:17:00.375Z,100848.20
2019-01-11T12:18:53.115Z,100842.58
2019-01-11T12:20:46.445Z,100837.80
2019-01-11T12:22:40.004Z,100846.34
2019-01-11T12:24:32.914Z,100842.92
2019-01-11T12:26:26.481Z,100836.84
2019-01-11T12:28:19.475Z,100836.86
2019-01-11T12:30:13.716Z,100834.64
2019-01-11T12:32:07.361Z,100826.94
2019-01-11T12:34:00.745Z,100818.72
2019-01-11T12:35:53.639Z,100811.38
2019-01-11T12:37:47.516Z,100813.60
2019-01-11T12:39:40.108Z,100806.73
2019-01-11T12:41:33.160Z,100807.16
2019-01-11T12:43:28.015Z,100803.31
2019-01-11T12:45:20.792Z,100795.53
2019-01-11T12:47:14.074Z,100783.03
2019-01-11T12:49:06.922Z,100777.42
2019-01-11T12:50:59.886Z,100773.96
2019-01-11T12:52:52.831Z,100771.42
2019-01-11T12:54:45.925Z,100765.41
2019-01-11T12:56:38.996Z,100767.52
2019-01-11T12:58:32.023Z,100765.39
2019-01-11T13:00:25.074Z,100766.25
2019-01-11T13:02:17.990Z,100762.80
2019-01-11T13:04:10.725Z,100754.58
2019-01-11T13:06:05.006Z,100757.14
2019-01-11T13:07:57.947Z,100748.97
2019-01-11T13:09:51.813Z,100751.98
2019-01-11T13:11:44.945Z,100753.20
2019-01-11T13:13:37.955Z,100751.06
2019-01-11T13:15:31.017Z,100750.66
2019-01-11T13:17:25.299Z,100751.95
2019-01-11T13:19:19.485Z,100744.61
2019-01-11T13:21:12.385Z,100742.84
2019-01-11T13:23:06.800Z,100730.77
2019-01-11T13:24:59.716Z,100731.19
2019-01-11T13:26:52.580Z,100724.28
2019-01-11T13:28:48.175Z,100718.67
2019-01-11T13:30:41.035Z,100714.77
2019-01-11T13:32:33.908Z,100710.08
2019-01-11T13:34:26.926Z,100696.28
2019-01-11T13:36:21.945Z,100698.85
2019-01-11T13:38:14.855Z,100694.08
2019-01-11T13:40:29.386Z,100690.21
2019-01-11T13:42:22.385Z,100682.45
2019-01-11T13:44:15.845Z,100680.77
2019-01-11T13:46:08.885Z,100680.30
2019-01-11T13:48:04.813Z,100675.56
2019-01-11T13:49:58.151Z,100673.80
2019-01-11T13:51:52.886Z,100675.11
2019-01-11T13:53:46.151Z,100675.96
2019-01-11T13:55:39.397Z,100680.73
2019-01-11T13:57:32.394Z,100672.97
2019-01-11T13:59:26.025Z,100675.13
2019-01-11T14:01:18.895Z,100668.66
2019-01-11T14:03:12.748Z,100663.06
2019-01-11T14:05:07.506Z,100657.50
2019-01-11T14:07:01.061Z,100657.48
2019-01-11T14:08:54.295Z,100651.86
2019-01-11T14:10:47.887Z,100645.85
2019-01-11T14:12:40.910Z,100644.11
2019-01-11T14:14:34.525Z,100642.40
2019-01-11T14:16:27.726Z,100637.69
2019-01-11T14:18:22.325Z,100624.72
2019-01-11T14:20:16.545Z,100627.31
2019-01-11T14:22:13.653Z,100618.69
2019-01-11T14:24:05.815Z,100623.02
2019-01-11T14:25:58.765Z,100611.34
2019-01-11T14:27:51.787Z,100610.50
2019-01-11T14:29:45.127Z,100601.03
2019-01-11T14:31:42.768Z,100587.67
2019-01-11T14:33:36.679Z,100583.39
2019-01-11T14:35:30.186Z,100574.77
2019-01-11T14:37:25.077Z,100576.08
2019-01-11T14:39:18.475Z,100569.61
2019-01-11T14:41:11.969Z,100570.51
2019-01-11T14:43:05.438Z,100573.08
2019-01-11T14:44:58.695Z,100564.03
2019-01-11T14:46:51.758Z,100567.89
2019-01-11T14:48:44.773Z,100560.98
2019-01-11T14:50:39.125Z,100563.55
2019-01-11T14:52:32.377Z,100555.39
2019-01-11T14:54:25.157Z,100559.27
2019-01-11T14:56:19.675Z,100561.02
2019-01-11T14:58:13.060Z,100558.84
2019-01-11T15:00:10.286Z,100557.55
2019-01-11T15:02:03.307Z,100561.84
2019-01-11T15:03:57.055Z,100557.06
2019-01-11T15:05:51.937Z,100564.79
2019-01-11T15:07:45.421Z,100563.08
2019-01-11T15:09:38.406Z,100558.75
2019-01-11T15:11:31.774Z,100557.91
2019-01-11T15:13:24.697Z,100551.45
2019-01-11T15:15:18.505Z,100553.60
2019-01-11T15:17:11.567Z,100556.63
2019-01-11T15:19:05.495Z,100558.36
2019-01-11T15:20:58.916Z,100555.36
2019-01-11T15:22:52.433Z,100553.18
2019-01-11T15:24:46.194Z,100544.14
2019-01-11T15:26:40.116Z,100538.11
2019-01-11T15:28:33.406Z,100536.83
2019-01-11T15:30:27.986Z,100536.36
2019-01-11T15:32:21.155Z,100536.36
2019-01-11T15:34:14.252Z,100528.20
2019-01-11T15:36:07.366Z,100528.22
2019-01-11T15:38:00.606Z,100532.08
2019-01-11T15:39:54.411Z,100519.58
2019-01-11T15:41:47.906Z,100526.92
2019-01-11T15:43:40.963Z,100531.22
2019-01-11T15:45:34.795Z,100519.19
2019-01-11T15:47:27.850Z,100498.97
2019-01-11T15:49:20.845Z,100498.95
2019-01-11T15:51:13.865Z,100497.69
2019-01-11T15:53:08.266Z,100496.84
2019-01-11T15:55:02.456Z,100502.87
2019-01-11T15:56:56.363Z,100500.70
2019-01-11T15:58:49.365Z,100489.52
2019-01-11T16:00:48.926Z,100488.66
2019-01-11T16:02:42.085Z,100477.91
2019-01-11T16:04:35.225Z,100469.30
2019-01-11T16:06:41.795Z,100461.97
2019-01-11T16:08:34.650Z,100458.53
2019-01-11T16:10:27.719Z,100463.28
2019-01-11T16:12:22.515Z,100469.75
2019-01-11T16:15:20.135Z,100460.28
2019-01-11T16:17:16.565Z,100457.28
2019-01-11T16:19:10.783Z,100452.11
2019-01-11T16:21:04.314Z,100453.39
2019-01-11T16:22:57.696Z,100449.11
2019-01-11T16:24:51.106Z,100444.36
2019-01-11T16:26:44.565Z,100440.08
2019-01-11T16:28:38.009Z,100452.09
2019-01-11T16:30:31.698Z,100450.80
2019-01-11T16:32:25.256Z,100446.09
2019-01-11T16:34:18.595Z,100435.31
2019-01-11T16:36:12.024Z,100442.66
2019-01-11T16:38:06.153Z,100437.06
2019-01-11T16:40:01.813Z,100433.19
2019-01-11T16:41:57.176Z,100437.94
2019-01-11T16:43:50.527Z,100428.91
2019-01-11T16:45:44.303Z,100432.78
2019-01-11T16:47:38.524Z,100431.48
2019-01-11T16:49:32.494Z,100432.36
2019-01-11T16:51:26.485Z,100429.77
2019-01-11T16:53:19.709Z,100431.92
2019-01-11T16:55:12.996Z,100429.34
2019-01-11T16:57:06.629Z,100426.79
2019-01-11T16:58:59.807Z,100433.25
2019-01-11T17:00:53.526Z,100429.80
2019-01-11T17:02:47.575Z,100420.31
2019-01-11T17:04:40.936Z,100420.74
2019-01-11T17:06:34.228Z,100404.39
2019-01-11T17:08:28.401Z,100395.78
2019-01-11T17:10:22.535Z,100394.92
2019-01-11T17:12:15.806Z,100398.81
2019-01-11T17:14:10.363Z,100400.09
2019-01-11T17:16:03.485Z,100393.22
2019-01-11T17:17:56.656Z,100391.48
2019-01-11T17:19:50.897Z,100385.89
2019-01-11T17:21:45.016Z,100382.00
2019-01-11T17:23:38.873Z,100375.98
2019-01-11T17:25:32.275Z,100369.97
2019-01-11T17:27:25.526Z,100366.09
2019-01-11T17:29:19.306Z,100361.78
2019-01-11T17:31:13.225Z,100358.80
2019-01-11T17:33:07.065Z,100362.23
2019-01-11T17:35:00.608Z,100361.38
2019-01-11T17:36:55.442Z,100363.97
2019-01-11T17:38:49.155Z,100367.83
2019-01-11T17:40:42.976Z,100367.83
2019-01-11T17:42:37.475Z,100377.73
2019-01-11T17:44:32.157Z,100375.58
2019-01-11T17:46:25.845Z,100367.38
2019-01-11T17:48:20.885Z,100372.58
2019-01-11T17:50:20.008Z,100370.41
2019-01-11T17:52:13.699Z,100369.98
2019-01-11T17:54:07.768Z,100373.42
2019-01-11T17:56:01.655Z,100368.25
2019-01-11T17:57:55.456Z,100368.28
2019-01-11T17:59:48.993Z,100376.04
2019-01-11T18:01:42.777Z,100359.65
2019-01-11T18:03:37.623Z,100360.52
2019-01-11T18:05:31.353Z,100354.07
2019-01-11T18:07:24.912Z,100356.66
2019-01-11T18:09:18.711Z,100353.20
2019-01-11T18:11:13.325Z,100354.48
2019-01-11T18:13:07.317Z,100351.48
2019-01-11T18:15:01.892Z,100340.70
2019-01-11T18:16:57.653Z,100345.01
2019-01-11T18:18:51.533Z,100339.86
2019-01-11T18:20:45.356Z,100330.81
2019-01-11T18:22:39.166Z,100332.08
2019-01-11T18:24:32.918Z,100323.91
2019-01-11T18:26:26.886Z,100329.52
2019-01-11T18:28:20.624Z,100318.75
2019-01-11T18:30:15.725Z,100316.15
2019-01-11T18:32:09.536Z,100321.76
2019-01-11T18:34:03.052Z,100321.76
2019-01-11T18:35:56.836Z,100316.57
2019-01-11T18:37:50.526Z,100316.59
2019-01-11T18:39:45.616Z,100322.17
2019-01-11T18:41:39.403Z,100318.73
2019-01-11T18:43:33.083Z,100312.71
2019-01-11T18:45:28.832Z,100311.83
2019-01-11T18:47:22.486Z,100311.42
2019-01-11T18:49:16.027Z,100307.11
2019-01-11T18:51:11.317Z,100318.32
2019-01-11T18:53:04.873Z,100318.32
2019-01-11T18:54:58.857Z,100322.18
2019-01-11T18:56:52.526Z,100315.72
2019-01-11T18:58:46.323Z,100307.52
2019-01-11T19:00:40.132Z,100315.30
2019-01-11T19:02:33.994Z,100306.69
2019-01-11T19:04:27.827Z,100310.12
2019-01-11T19:06:21.435Z,100304.09
2019-01-11T19:08:15.016Z,100305.80
2019-01-11T19:10:11.628Z,100304.50
2019-01-11T19:12:05.400Z,100308.83
2019-01-11T19:13:59.634Z,100300.20
2019-01-11T19:15:53.984Z,100302.38
2019-01-11T19:17:48.258Z,100300.63
2019-01-11T19:19:42.026Z,100302.36
2019-01-11T19:21:35.933Z,100303.65
2019-01-11T19:23:30.045Z,100307.09
2019-01-11T19:25:24.085Z,100305.80
2019-01-11T19:27:18.193Z,100301.94
2019-01-11T19:29:11.955Z,100300.21
2019-01-11T19:31:06.106Z,100300.20
2019-01-11T19:33:00.118Z,100292.45
2019-01-11T19:34:54.125Z,100285.98
2019-01-11T19:36:47.966Z,100288.13
2019-01-11T19:38:41.646Z,100294.16
2019-01-11T19:40:35.687Z,100286.84
2019-01-11T19:42:29.595Z,100291.13
2019-01-11T19:44:23.438Z,100280.36
2019-01-11T19:46:17.333Z,100279.51
2019-01-11T19:48:11.335Z,100277.36
2019-01-11T19:50:06.016Z,100273.89
2019-01-11T19:52:00.097Z,100273.91
2019-01-11T19:53:53.977Z,100270.87
2019-01-11T19:55:48.843Z,100265.70
2019-01-11T19:57:42.864Z,100266.12
2019-01-11T19:59:37.156Z,100272.61
2019-01-11T20:01:31.098Z,100262.27
2019-01-11T20:03:25.211Z,100257.92
2019-01-11T20:05:19.302Z,100255.78
2019-01-11T20:07:13.335Z,100254.90
2019-01-11T20:09:09.195Z,100249.32
2019-01-11T20:11:03.290Z,100245.84
2019-01-11T20:12:58.187Z,100247.16
2019-01-11T20:14:52.202Z,100245.02
2019-01-11T20:16:46.063Z,100247.58
2019-01-11T20:18:40.424Z,100243.70
2019-01-11T20:20:34.373Z,100239.37
2019-01-11T20:22:28.376Z,100229.89
2019-01-11T20:24:23.917Z,100218.68
2019-01-11T20:26:18.906Z,100214.81
2019-01-11T20:28:13.152Z,100215.66
2019-01-11T20:30:08.310Z,100221.68
2019-01-11T20:32:02.186Z,100221.69
2019-01-11T20:33:56.966Z,100225.12
2019-01-11T20:35:50.776Z,100219.09
2019-01-11T20:37:45.337Z,100221.65
2019-01-11T20:39:39.305Z,100227.70
2019-01-11T20:41:33.583Z,100222.08
2019-01-11T20:43:29.264Z,100223.37
2019-01-11T20:45:24.476Z,100227.23
2019-01-11T20:47:19.322Z,100228.53
2019-01-11T20:49:13.813Z,100228.09
2019-01-11T20:51:08.546Z,100225.08
2019-01-11T20:53:02.377Z,100226.78
2019-01-11T20:54:56.226Z,100223.31
2019-01-11T20:56:50.446Z,100228.05
2019-01-11T20:58:44.432Z,100231.91
2019-01-11T21:00:38.582Z,100230.61
2019-01-11T21:02:32.116Z,100234.50
2019-01-11T21:04:25.917Z,100234.91
2019-01-11T21:06:19.906Z,100236.64
2019-01-11T21:08:14.606Z,100241.81
2019-01-11T21:10:09.176Z,100248.27
2019-01-11T21:12:05.633Z,100255.59
2019-01-11T21:13:59.536Z,100252.16
2019-01-11T21:15:53.756Z,100250.83
2019-01-11T21:17:50.386Z,100252.14
2019-01-11T21:19:44.254Z,100249.55
2019-01-11T21:21:37.948Z,100251.70
2019-01-11T21:23:33.715Z,100253.84
2019-01-11T21:25:27.466Z,100251.25
2019-01-11T21:27:21.492Z,100259.02
2019-01-11T21:29:15.096Z,100254.70
2019-01-11T21:31:09.066Z,100254.70
2019-01-11T21:33:05.103Z,100255.98
2019-01-11T21:34:59.726Z,100253.39
2019-01-11T21:36:54.355Z,100257.28
2019-01-11T21:38:49.206Z,100254.25
2019-01-11T21:40:43.485Z,100256.84